Startpagina
METAR-TAF:

METAR-TAF

Vliegvelden :

Bydgoszcz, Polen

breedte: 53-05-48N, lengte: 017-58-40E, hoogte: 72 m

Actueel weer

Dit bericht is 22 minuten geleden gemaakt, om 10:00 UTC
Wind 9 kt uit het oosten, variërend tussen het noordoosten en het oostzuidoosten
Temperatuur 27°C
Vochtigheid 51%
Druk 1012 hPa
Zicht 10 km of meer
geen wolken onder 1500 m en geen cumulonimbus

METAR: EPBY 251000Z 08009KT 040V110 CAVOK 27/16 Q1012

Tijdstip: 12:22 (10:22 UTC)

Verwachting

Dit bericht is 4 uur en het 52 minuten geleden gemaakt, om 05:30 UTC
Verwachting geldig van 25 om 06 UTC tot 26 om 06 UTC
Wind 10 kt uit het oosten
Zicht 10 km of meer
geen wolken onder 1500 m en geen cumulonimbus
Tijdelijke
van 25 om 14 UTC tot 25 om 18 UTC
Gebroken wolken op 4000 ft, Cumulonimbus.
lichte regenbuien
Wijzigt naar
van 25 om 18 UTC tot 25 om 20 UTC
Wind 3 kt uit variabele richting

TAF: EPBY 250530Z 2506/2606 09010KT CAVOK TEMPO 2514/2518 -SHRA BKN040CB BECMG 2518/2520 VRB03KT

Waarnemingen en weersverwachtingen van meer dan 4000 vliegvelden (METAR en TAF).

De beschikbare stations zijn de gele en rode punten op de kaart.

Ga met uw muis naar het station om de naam te zien.

Klik dan om waarnemingen en weersverwachtingen te zien.

kaart wijzigen: klik op de groene knoppen met een zwart kruis om in te zoomen, op de groene knop met een streepje om uit te zoomen of op de groene pijlen voor aangrenzende kaarten.


METAR-TAF: